Time;durP1;ratioP1;P1;durP2;ratioP2;P2;SDS_P1;SDS_P2;PMS_P1;PMS_P2;Temp;Humidity;BMP_temperature;BMP_pressure;BME280_temperature;BME280_humidity;BME280_pressure;Samples;Min_cycle;Max_cycle;Signal;HPM_P1;HPM_P2
2023/03/12 00:00:20;;;;;;;13.32;10.52;;;;;;;1.69;59.72;100658.88;690841;28;1284;-85
2023/03/12 00:00:42;;;;;;;13.25;10.27;;;;;;;1.69;60.04;100664.03;688306;28;1028;-85
2023/03/12 00:01:09;;;;;;;12.30;10.02;;;;;;;1.66;60.02;100667.31;682849;28;1094;-85
2023/03/12 00:01:32;;;;;;;13.10;10.30;;;;;;;1.69;60.23;100672.66;685643;28;1334;-85
2023/03/12 00:01:52;;;;;;;13.10;10.38;;;;;;;1.74;59.93;100685.78;685383;28;1365;-86
2023/03/12 00:02:13;;;;;;;13.25;10.32;;;;;;;1.72;59.96;100687.38;685556;28;1125;-85
2023/03/12 00:02:33;;;;;;;13.03;10.13;;;;;;;1.63;60.38;100667.09;680319;29;836;-86
2023/03/12 00:02:55;;;;;;;13.17;9.90;;;;;;;1.60;59.97;100660.09;685549;28;1155;-86
2023/03/12 00:03:16;;;;;;;13.90;9.93;;;;;;;1.68;60.20;100670.88;685520;28;1084;-86
2023/03/12 00:03:37;;;;;;;12.57;9.90;;;;;;;1.58;60.20;100664.25;688353;28;901;-85
2023/03/12 00:04:01;;;;;;;12.77;9.70;;;;;;;1.72;59.66;100687.38;688185;28;1124;-85
2023/03/12 00:04:21;;;;;;;10.65;9.38;;;;;;;1.63;59.91;100682.53;688378;28;878;-85
2023/03/12 00:04:42;;;;;;;10.90;9.40;;;;;;;1.60;60.34;100685.81;684677;28;1212;-86
2023/03/12 00:05:03;;;;;;;10.70;9.40;;;;;;;1.56;60.05;100675.22;685452;28;1122;-85
2023/03/12 00:05:24;;;;;;;10.60;9.30;;;;;;;1.57;60.35;100677.00;686363;28;1422;-85
2023/03/12 00:05:45;;;;;;;10.52;9.20;;;;;;;1.48;60.17;100672.19;688326;28;1004;-85
2023/03/12 00:06:06;;;;;;;11.57;9.10;;;;;;;1.49;60.37;100673.97;685394;28;1167;-86
2023/03/12 00:06:27;;;;;;;12.00;9.20;;;;;;;1.47;60.66;100670.41;680359;29;899;-86
2023/03/12 00:06:47;;;;;;;11.15;9.20;;;;;;;1.53;60.10;100669.91;680102;29;1056;-86
2023/03/12 00:07:08;;;;;;;10.23;9.20;;;;;;;1.63;60.18;100680.88;685298;28;1511;-86
2023/03/12 00:07:28;;;;;;;9.90;8.90;;;;;;;1.63;59.83;100688.59;685637;28;1183;-85
2023/03/12 00:07:50;;;;;;;9.90;8.90;;;;;;;1.57;59.88;100671.84;680289;28;1196;-86
2023/03/12 00:08:13;;;;;;;9.80;8.80;;;;;;;1.56;60.10;100676.13;682778;29;1166;-86
2023/03/12 00:08:33;;;;;;;10.50;9.27;;;;;;;1.54;59.59;100663.97;683010;29;1044;-86
2023/03/12 00:08:54;;;;;;;12.57;9.73;;;;;;;1.59;59.94;100670.28;680091;29;1571;-85
2023/03/12 00:09:15;;;;;;;12.63;10.20;;;;;;;1.65;59.93;100677.50;685552;28;1020;-85
2023/03/12 00:09:37;;;;;;;12.88;10.27;;;;;;;1.65;59.63;100667.22;685595;28;1319;-86
2023/03/12 00:09:57;;;;;;;11.45;9.82;;;;;;;1.64;59.64;100671.44;685361;28;1273;-85
2023/03/12 00:10:19;;;;;;;11.57;9.50;;;;;;;1.71;59.92;100677.88;688153;28;1318;-86
2023/03/12 00:10:40;;;;;;;10.98;9.32;;;;;;;1.69;59.44;100671.75;690925;28;1438;-86
2023/03/12 00:11:05;;;;;;;11.65;9.90;;;;;;;1.76;59.49;100681.63;688116;28;1284;-86
2023/03/12 00:11:27;;;;;;;11.10;10.00;;;;;;;1.66;59.66;100669.00;680394;28;1573;-86
2023/03/12 00:11:48;;;;;;;10.95;9.85;;;;;;;1.75;59.70;100677.28;685608;28;1364;-86
2023/03/12 00:12:32;;;;;;;10.88;9.82;;;;;;;1.72;59.59;100682.25;682827;28;1319;-86
2023/03/12 00:12:53;;;;;;;12.18;9.80;;;;;;;1.75;59.71;100679.84;682807;28;1109;-85
2023/03/12 00:13:29;;;;;;;12.70;10.00;;;;;;;1.70;59.77;100670.97;677627;29;1230;-85
2023/03/12 00:13:53;;;;;;;13.82;10.38;;;;;;;1.79;59.51;100686.97;680413;28;1910;-85
2023/03/12 00:14:14;;;;;;;13.63;10.10;;;;;;;1.73;59.41;100673.72;685563;28;980;-86
2023/03/12 00:14:35;;;;;;;11.70;10.03;;;;;;;1.74;59.68;100663.53;688510;28;1065;-85
2023/03/12 00:14:56;;;;;;;10.80;9.73;;;;;;;1.74;59.39;100665.22;691116;28;1050;-85
2023/03/12 00:15:16;;;;;;;10.70;9.60;;;;;;;1.81;59.56;100681.91;688322;28;1000;-86
2023/03/12 00:15:38;;;;;;;11.43;9.77;;;;;;;1.81;59.68;100676.75;680305;28;1463;-86
2023/03/12 00:16:07;;;;;;;12.45;10.43;;;;;;;1.84;59.48;100682.13;685398;28;1280;-86
2023/03/12 00:16:28;;;;;;;11.90;10.43;;;;;;;1.73;59.46;100668.56;685548;28;890;-85
2023/03/12 00:16:48;;;;;;;10.90;9.80;;;;;;;1.72;59.39;100666.81;687932;28;1373;-86
2023/03/12 00:17:09;;;;;;;10.55;9.30;;;;;;;1.69;59.47;100661.44;690705;28;1164;-86
2023/03/12 00:17:37;;;;;;;10.98;9.15;;;;;;;1.75;59.82;100679.84;688223;28;1274;-86
2023/03/12 00:17:57;;;;;;;11.75;9.43;;;;;;;1.67;59.47;100663.03;682737;29;1088;-85
2023/03/12 00:18:18;;;;;;;11.68;9.82;;;;;;;1.76;59.68;100679.06;682770;29;1286;-86
2023/03/12 00:18:40;;;;;;;10.93;9.53;;;;;;;1.75;59.87;100677.28;679955;29;1178;-85
2023/03/12 00:19:00;;;;;;;11.77;9.75;;;;;;;1.67;59.59;100674.25;685508;28;1109;-85
2023/03/12 00:19:21;;;;;;;10.90;9.60;;;;;;;1.72;59.84;100677.09;691060;28;1182;-86
2023/03/12 00:19:55;;;;;;;10.98;9.77;;;;;;;1.63;59.73;100664.53;690655;28;1114;-86
2023/03/12 00:20:17;;;;;;;10.30;9.30;;;;;;;1.59;59.66;100658.31;690671;28;1437;-86
2023/03/12 00:20:37;;;;;;;10.50;9.40;;;;;;;1.63;59.67;100673.16;688244;28;1264;-85
2023/03/12 00:20:58;;;;;;;10.80;9.70;;;;;;;1.55;60.10;100664.06;682732;28;1184;-85
2023/03/12 00:21:20;;;;;;;11.00;9.85;;;;;;;1.62;60.29;100671.38;685556;28;961;-86
2023/03/12 00:21:41;;;;;;;10.85;9.75;;;;;;;1.61;60.08;100674.75;682828;28;1221;-86
2023/03/12 00:22:01;;;;;;;11.40;9.57;;;;;;;1.49;60.23;100654.28;682902;29;1115;-85
2023/03/12 00:22:43;;;;;;;10.77;9.25;;;;;;;1.57;60.26;100672.75;688387;28;780;-85
2023/03/12 00:23:04;;;;;;;10.30;9.30;;;;;;;1.46;60.36;100660.94;689536;28;1050;-86
2023/03/12 00:23:25;;;;;;;10.93;9.82;;;;;;;1.49;60.26;100673.97;685572;28;1243;-86
2023/03/12 00:23:50;;;;;;;11.23;10.02;;;;;;;1.39;60.53;100657.06;685500;28;1375;-86
2023/03/12 00:24:11;;;;;;;11.43;10.23;;;;;;;1.35;60.76;100655.97;682711;28;1269;-86
2023/03/12 00:24:31;;;;;;;10.88;9.77;;;;;;;1.38;60.43;100662.13;688289;28;1054;-85
2023/03/12 00:24:53;;;;;;;10.77;9.67;;;;;;;1.43;60.50;100679.63;682928;28;985;-86
2023/03/12 00:25:20;;;;;;;10.32;9.23;;;;;;;1.38;60.84;100669.84;688267;28;985;-85
2023/03/12 00:25:40;;;;;;;11.00;9.82;;;;;;;1.40;60.67;100675.97;685610;28;1116;-85
2023/03/12 00:26:03;;;;;;;11.00;9.85;;;;;;;1.35;61.08;100671.41;688025;28;1150;-85
2023/03/12 00:26:23;;;;;;;11.10;10.00;;;;;;;1.23;61.14;100655.19;688291;28;1413;-86
2023/03/12 00:26:44;;;;;;;11.35;10.15;;;;;;;1.24;61.25;100667.25;685255;28;1165;-85
2023/03/12 00:27:06;;;;;;;11.60;10.40;;;;;;;1.21;60.98;100657.66;688024;28;1211;-85
2023/03/12 00:27:26;;;;;;;11.60;10.40;;;;;;;1.21;61.63;100661.91;685785;28;1266;-85
2023/03/12 00:27:47;;;;;;;11.00;9.80;;;;;;;1.24;61.41;100669.84;680240;29;1299;-86
2023/03/12 00:28:08;;;;;;;12.48;10.10;;;;;;;1.24;61.31;100671.50;690769;28;1094;-86
2023/03/12 00:28:29;;;;;;;12.60;10.38;;;;;;;1.26;61.55;100675.97;688325;28;799;-85
2023/03/12 00:28:49;;;;;;;11.55;10.30;;;;;;;1.23;61.27;100670.63;682952;28;1297;-85
2023/03/12 00:29:10;;;;;;;12.48;10.15;;;;;;;1.16;61.75;100664.19;682607;28;1189;-85
2023/03/12 00:29:31;;;;;;;12.00;9.47;;;;;;;1.15;61.55;100658.97;683079;28;757;-86
2023/03/12 00:29:52;;;;;;;11.97;9.50;;;;;;;1.14;61.38;100659.75;688216;28;1247;-86
2023/03/12 00:30:12;;;;;;;11.73;9.90;;;;;;;1.15;61.62;100666.69;682820;29;1176;-85
2023/03/12 00:30:33;;;;;;;12.98;10.20;;;;;;;1.10;61.16;100655.19;682975;28;1176;-85
2023/03/12 00:30:54;;;;;;;13.30;10.53;;;;;;;1.12;61.41;100658.75;685531;28;1108;-86
2023/03/12 00:31:14;;;;;;;11.40;9.80;;;;;;;1.17;61.43;100671.09;688228;28;1121;-86
2023/03/12 00:31:35;;;;;;;10.60;9.50;;;;;;;1.06;61.41;100662.72;682956;28;820;-86
2023/03/12 00:31:55;;;;;;;10.60;9.50;;;;;;;1.13;61.53;100669.13;687906;28;1318;-86
2023/03/12 00:32:16;;;;;;;11.30;9.60;;;;;;;1.03;61.15;100652.22;688215;28;980;-85
2023/03/12 00:32:37;;;;;;;10.82;9.65;;;;;;;1.06;61.48;100657.59;691118;28;737;-85
2023/03/12 00:32:57;;;;;;;10.88;9.43;;;;;;;1.13;61.28;100674.28;688145;28;1103;-86
2023/03/12 00:33:18;;;;;;;10.27;9.18;;;;;;;1.02;61.21;100653.03;690850;28;1211;-86
2023/03/12 00:33:39;;;;;;;11.43;9.50;;;;;;;0.98;61.65;100653.63;690930;28;1252;-85
2023/03/12 00:34:01;;;;;;;11.33;9.47;;;;;;;0.96;61.58;100650.03;685403;28;1973;-86
2023/03/12 00:34:21;;;;;;;11.57;9.75;;;;;;;1.05;61.62;100665.19;688335;28;1071;-86
2023/03/12 00:34:42;;;;;;;10.43;9.30;;;;;;;0.92;61.28;100645.50;685557;28;1238;-85
2023/03/12 00:35:04;;;;;;;10.57;9.48;;;;;;;0.99;61.37;100662.22;688132;28;1127;-85
2023/03/12 00:35:25;;;;;;;11.57;9.48;;;;;;;0.96;61.57;100656.88;685595;28;795;-85
2023/03/12 00:35:46;;;;;;;11.85;9.68;;;;;;;0.91;61.27;100646.31;693734;28;1110;-85
2023/03/12 00:36:07;;;;;;;10.38;9.00;;;;;;;0.90;61.61;100645.41;682714;28;1293;-86
2023/03/12 00:36:30;;;;;;;9.95;8.95;;;;;;;0.98;61.30;100669.03;688246;28;795;-86
2023/03/12 00:36:50;;;;;;;9.77;8.77;;;;;;;0.91;61.33;100654.00;685422;28;1117;-85
2023/03/12 00:37:11;;;;;;;10.20;9.10;;;;;;;0.88;61.60;100651.22;693505;28;1122;-85
2023/03/12 00:37:32;;;;;;;10.50;9.40;;;;;;;0.86;61.48;100651.16;691050;28;747;-85
2023/03/12 00:37:52;;;;;;;10.53;9.43;;;;;;;0.81;61.53;100648.25;688097;28;1265;-86
2023/03/12 00:38:13;;;;;;;10.70;9.50;;;;;;;0.79;61.65;100639.56;685466;28;1199;-86
2023/03/12 00:38:34;;;;;;;10.75;9.23;;;;;;;0.84;61.69;100654.41;687928;28;1187;-85
2023/03/12 00:38:56;;;;;;;10.80;9.30;;;;;;;0.88;61.97;100667.53;685094;28;1365;-85
2023/03/12 00:39:17;;;;;;;10.48;9.38;;;;;;;0.78;62.00;100636.91;682798;29;1001;-85
2023/03/12 00:39:37;;;;;;;10.68;9.57;;;;;;;0.79;61.74;100652.41;685604;28;764;-86
2023/03/12 00:40:00;;;;;;;10.90;9.60;;;;;;;0.80;61.90;100650.75;685381;28;1161;-86
2023/03/12 00:40:21;;;;;;;13.35;10.00;;;;;;;0.80;61.90;100654.19;688096;28;1371;-86
2023/03/12 00:40:41;;;;;;;13.10;9.85;;;;;;;0.81;62.10;100650.81;685502;28;1230;-86
2023/03/12 00:41:02;;;;;;;11.02;9.60;;;;;;;0.78;62.13;100648.06;688025;28;1316;-85
2023/03/12 00:41:24;;;;;;;10.10;9.10;;;;;;;0.74;61.80;100638.38;693829;28;728;-86
2023/03/12 00:41:45;;;;;;;10.10;9.10;;;;;;;0.76;61.89;100646.16;685581;28;1104;-86
2023/03/12 00:42:05;;;;;;;9.93;8.90;;;;;;;0.83;61.57;100652.63;685300;28;1365;-85
2023/03/12 00:42:27;;;;;;;9.93;8.90;;;;;;;0.81;61.67;100653.38;680277;29;737;-85
2023/03/12 00:42:47;;;;;;;10.07;9.07;;;;;;;0.76;62.13;100635.91;685379;28;1033;-86
2023/03/12 00:43:08;;;;;;;9.70;8.80;;;;;;;0.72;61.82;100632.25;685406;28;1100;-86
2023/03/12 00:43:28;;;;;;;9.50;8.55;;;;;;;0.75;61.68;100644.41;682947;28;1223;-85
2023/03/12 00:43:50;;;;;;;9.53;8.53;;;;;;;0.72;61.83;100634.81;688133;28;1277;-85
2023/03/12 00:44:11;;;;;;;11.40;9.18;;;;;;;0.73;62.17;100640.84;685361;28;1224;-85
2023/03/12 00:44:31;;;;;;;11.73;9.45;;;;;;;0.83;61.99;100647.50;682899;29;1250;-86
2023/03/12 00:44:52;;;;;;;11.73;9.27;;;;;;;0.76;61.70;100633.31;685423;28;1316;-85
2023/03/12 00:45:13;;;;;;;10.07;8.87;;;;;;;0.75;61.94;100632.47;685447;28;1043;-86
2023/03/12 00:45:33;;;;;;;10.70;8.77;;;;;;;0.83;61.80;100652.63;682933;28;1066;-85
2023/03/12 00:45:54;;;;;;;11.00;9.10;;;;;;;0.74;61.78;100633.25;685425;28;1008;-86
2023/03/12 00:46:15;;;;;;;11.65;9.38;;;;;;;0.80;61.92;100638.75;682819;28;1103;-85
2023/03/12 00:46:36;;;;;;;10.43;9.32;;;;;;;0.78;62.04;100642.91;685558;28;851;-85
2023/03/12 00:46:57;;;;;;;10.57;9.47;;;;;;;0.78;62.01;100642.91;685114;28;1080;-86
2023/03/12 00:47:18;;;;;;;10.77;9.68;;;;;;;0.71;61.83;100632.16;682783;28;1301;-86
2023/03/12 00:47:39;;;;;;;10.32;9.30;;;;;;;0.78;62.10;100650.63;685487;28;1203;-86
2023/03/12 00:47:59;;;;;;;9.80;8.80;;;;;;;0.73;62.24;100635.72;688130;28;1025;-86
2023/03/12 00:48:20;;;;;;;9.40;8.50;;;;;;;0.80;62.12;100649.03;685447;28;1080;-86
2023/03/12 00:48:41;;;;;;;9.80;8.90;;;;;;;0.72;62.23;100633.94;687676;28;1425;-86
2023/03/12 00:49:02;;;;;;;10.65;9.10;;;;;;;0.76;62.22;100644.50;687902;28;1275;-85
2023/03/12 00:49:22;;;;;;;10.83;9.50;;;;;;;0.69;61.98;100629.47;685561;28;1277;-86
2023/03/12 00:49:43;;;;;;;11.93;9.50;;;;;;;0.70;62.34;100631.25;688194;28;1160;-85
2023/03/12 00:50:04;;;;;;;10.25;9.15;;;;;;;0.78;62.12;100642.91;688093;28;1191;-85
2023/03/12 00:50:25;;;;;;;9.93;8.93;;;;;;;0.72;62.20;100629.66;685504;28;1250;-85
2023/03/12 00:50:46;;;;;;;9.63;8.73;;;;;;;0.71;61.80;100627.88;687769;28;1192;-85
2023/03/12 00:51:08;;;;;;;9.95;8.85;;;;;;;0.70;62.20;100620.06;688079;28;1105;-85
2023/03/12 00:51:28;;;;;;;10.05;8.63;;;;;;;0.80;61.86;100643.91;688277;28;831;-85
2023/03/12 00:51:49;;;;;;;10.47;9.27;;;;;;;0.68;61.86;100622.56;690808;28;1391;-85
2023/03/12 00:52:09;;;;;;;9.82;8.93;;;;;;;0.75;61.86;100637.59;693461;28;1089;-86
2023/03/12 00:52:30;;;;;;;10.90;9.20;;;;;;;0.69;61.72;100629.47;690989;28;1172;-86
2023/03/12 00:52:51;;;;;;;10.67;8.77;;;;;;;0.65;61.76;100617.22;685469;28;1193;-86
2023/03/12 00:53:11;;;;;;;11.40;8.80;;;;;;;0.64;62.16;100616.34;687965;28;1208;-86
2023/03/12 00:53:32;;;;;;;9.90;8.85;;;;;;;0.67;61.75;100626.78;685692;28;1050;-86
2023/03/12 00:53:54;;;;;;;10.38;8.73;;;;;;;0.67;62.16;100626.78;677348;29;1910;-85
2023/03/12 00:54:15;;;;;;;10.15;8.80;;;;;;;0.74;61.77;100638.38;680007;29;1393;-85
2023/03/12 00:54:36;;;;;;;9.52;8.52;;;;;;;0.71;61.85;100627.03;685587;28;1186;-86
2023/03/12 00:54:57;;;;;;;9.52;8.55;;;;;;;0.67;62.10;100628.50;690764;28;1288;-86
2023/03/12 00:55:18;;;;;;;9.95;8.90;;;;;;;0.74;62.01;100640.97;688195;28;1048;-86
2023/03/12 00:55:39;;;;;;;10.90;9.30;;;;;;;0.64;62.04;100625.72;688260;28;1149;-86
2023/03/12 00:55:59;;;;;;;10.30;9.20;;;;;;;0.64;62.10;100625.72;680062;29;1191;-86
2023/03/12 00:56:20;;;;;;;10.80;9.18;;;;;;;0.70;61.99;100630.34;688193;28;1281;-86
2023/03/12 00:56:41;;;;;;;11.68;9.30;;;;;;;0.64;61.84;100626.63;685305;28;1362;-85
2023/03/12 00:57:02;;;;;;;11.95;9.30;;;;;;;0.63;62.04;100618.78;682568;29;1209;-86
2023/03/12 00:57:22;;;;;;;10.40;8.90;;;;;;;0.67;62.13;100620.78;685571;28;875;-85
2023/03/12 00:57:43;;;;;;;9.60;8.60;;;;;;;0.66;62.04;100624.16;685519;28;1041;-86
2023/03/12 00:58:03;;;;;;;9.80;8.80;;;;;;;0.69;62.17;100621.78;688097;28;1222;-86
2023/03/12 00:58:24;;;;;;;10.60;9.03;;;;;;;0.69;61.86;100628.56;688273;28;831;-86
2023/03/12 00:58:45;;;;;;;9.95;8.95;;;;;;;0.68;62.35;100625.13;688210;28;948;-86
2023/03/12 00:59:06;;;;;;;9.50;8.55;;;;;;;0.67;62.06;100628.50;688036;28;1187;-86
2023/03/12 00:59:26;;;;;;;9.80;8.90;;;;;;;0.72;62.03;100629.66;688221;28;1160;-85
2023/03/12 00:59:47;;;;;;;10.20;9.20;;;;;;;0.71;62.25;100627.03;693600;28;1095;-86
2023/03/12 01:00:09;;;;;;;10.23;9.13;;;;;;;0.66;61.82;100619.00;693590;28;1078;-85
2023/03/12 01:00:30;;;;;;;10.40;8.93;;;;;;;0.68;62.02;100612.28;688035;28;866;-85
2023/03/12 01:00:51;;;;;;;10.18;9.00;;;;;;;0.75;61.78;100629.88;688095;28;1222;-86
2023/03/12 01:01:12;;;;;;;10.30;8.95;;;;;;;0.71;62.10;100615.06;687963;28;1305;-86
2023/03/12 01:01:32;;;;;;;12.20;9.27;;;;;;;0.80;61.79;100628.50;693749;28;778;-86
2023/03/12 01:01:53;;;;;;;12.60;9.33;;;;;;;0.77;61.84;100625.72;685472;28;1027;-85
2023/03/12 01:02:14;;;;;;;12.18;9.40;;;;;;;0.79;61.89;100626.72;682809;28;1192;-86
2023/03/12 01:02:36;;;;;;;9.63;8.68;;;;;;;0.75;61.86;100614.47;688218;28;1329;-86
2023/03/12 01:02:57;;;;;;;9.13;8.15;;;;;;;0.84;61.88;100623.56;688181;28;1253;-85
2023/03/12 01:03:18;;;;;;;9.33;8.33;;;;;;;0.85;61.59;100625.34;685454;28;1210;-86
2023/03/12 01:03:39;;;;;;;9.90;8.90;;;;;;;0.88;61.64;100622.97;690919;28;1202;-86
2023/03/12 01:03:59;;;;;;;9.93;8.93;;;;;;;0.87;61.85;100622.09;685325;28;1286;-85
2023/03/12 01:04:20;;;;;;;10.00;9.00;;;;;;;0.92;61.63;100617.25;688164;28;1205;-86
2023/03/12 01:04:40;;;;;;;9.90;8.93;;;;;;;0.92;61.59;100618.13;682893;29;1033;-85
2023/03/12 01:05:01;;;;;;;10.45;9.35;;;;;;;0.92;61.55;100618.13;690732;28;1341;-85
2023/03/12 01:05:22;;;;;;;11.18;9.32;;;;;;;0.98;61.45;100621.88;693536;28;1245;-86
2023/03/12 01:05:42;;;;;;;11.82;9.48;;;;;;;0.91;61.66;100611.19;688076;28;1209;-86
2023/03/12 01:06:05;;;;;;;12.40;9.67;;;;;;;0.98;61.44;100621.88;682773;28;1177;-85
2023/03/12 01:06:26;;;;;;;11.20;9.07;;;;;;;1.00;61.56;100610.91;685629;28;824;-86
2023/03/12 01:06:47;;;;;;;11.25;8.93;;;;;;;1.02;61.18;100614.47;679963;29;1091;-86
2023/03/12 01:07:08;;;;;;;10.23;8.50;;;;;;;1.06;61.47;100619.03;685351;28;1091;-85
2023/03/12 01:07:28;;;;;;;11.10;8.35;;;;;;;1.12;61.15;100631.38;682964;28;785;-85
2023/03/12 01:07:49;;;;;;;9.95;8.30;;;;;;;1.06;61.33;100616.47;688059;28;1104;-86
2023/03/12 01:08:10;;;;;;;10.48;8.63;;;;;;;1.18;61.44;100639.50;685379;28;1240;-86
2023/03/12 01:08:31;;;;;;;10.00;9.00;;;;;;;1.12;61.32;100621.09;685576;28;1343;-86
2023/03/12 01:08:52;;;;;;;10.00;9.00;;;;;;;1.11;60.95;100626.13;690793;28;1490;-85
2023/03/12 01:09:12;;;;;;;9.97;9.03;;;;;;;1.11;60.98;100616.75;682880;29;1026;-86
2023/03/12 01:09:33;;;;;;;11.90;8.65;;;;;;;1.20;60.89;100642.13;682832;29;1088;-86
2023/03/12 01:09:53;;;;;;;11.57;8.20;;;;;;;1.14;61.05;100624.66;688256;28;1177;-85
2023/03/12 01:10:18;;;;;;;10.87;7.80;;;;;;;1.25;61.15;100643.31;685419;28;1210;-86
2023/03/12 01:10:41;;;;;;;9.10;7.95;;;;;;;1.17;61.23;100632.53;685566;28;1023;-86
2023/03/12 01:11:03;;;;;;;9.90;8.00;;;;;;;1.23;60.82;100639.78;687926;28;1256;-85
2023/03/12 01:11:24;;;;;;;8.95;7.88;;;;;;;1.18;60.92;100636.00;690985;28;1198;-85
2023/03/12 01:11:44;;;;;;;8.18;7.38;;;;;;;1.21;60.88;100641.34;688239;28;1002;-86
2023/03/12 01:12:05;;;;;;;8.25;7.45;;;;;;;1.16;60.60;100635.91;688056;28;1056;-85
2023/03/12 01:12:25;;;;;;;8.80;7.90;;;;;;;1.27;60.58;100652.03;685446;28;1266;-85
2023/03/12 01:12:46;;;;;;;9.00;8.10;;;;;;;1.25;60.60;100653.59;680232;29;1073;-86
2023/03/12 01:13:07;;;;;;;9.18;8.27;;;;;;;1.12;60.47;100625.34;682679;28;982;-85
2023/03/12 01:13:28;;;;;;;8.98;7.80;;;;;;;1.13;60.33;100628.00;682497;29;1210;-86
2023/03/12 01:13:48;;;;;;;9.70;8.20;;;;;;;1.17;60.44;100629.97;682738;28;1919;-85
2023/03/12 01:14:09;;;;;;;9.55;7.90;;;;;;;1.15;60.46;100621.28;688046;28;1351;-86
2023/03/12 01:14:30;;;;;;;9.67;8.33;;;;;;;1.21;60.60;100636.19;688344;28;828;-86
2023/03/12 01:14:50;;;;;;;9.80;8.32;;;;;;;1.22;60.57;100638.00;685435;28;1084;-85
2023/03/12 01:15:16;;;;;;;9.90;8.60;;;;;;;1.21;60.35;100631.06;685185;28;1252;-86
2023/03/12 01:15:36;;;;;;;9.75;8.60;;;;;;;1.18;60.44;100630.88;682742;29;1374;-86
2023/03/12 01:15:57;;;;;;;10.23;8.77;;;;;;;1.17;60.25;100626.53;682822;28;1007;-86
2023/03/12 01:16:17;;;;;;;10.83;8.77;;;;;;;1.16;60.39;100623.06;677599;29;1074;-86
2023/03/12 01:16:38;;;;;;;10.23;8.93;;;;;;;1.14;60.24;100621.19;682856;29;1298;-85
2023/03/12 01:16:58;;;;;;;9.63;8.63;;;;;;;1.17;60.74;100623.97;682412;29;1085;-85
2023/03/12 01:17:19;;;;;;;9.98;8.98;;;;;;;1.17;60.69;100618.81;685523;28;1103;-85
2023/03/12 01:17:40;;;;;;;9.63;8.73;;;;;;;1.10;60.49;100614.97;682830;29;1265;-86
2023/03/12 01:18:01;;;;;;;9.93;8.95;;;;;;;1.18;60.66;100626.63;688023;28;1203;-86
2023/03/12 01:18:22;;;;;;;9.60;8.60;;;;;;;1.12;60.91;100621.09;690890;28;1213;-86
2023/03/12 01:18:43;;;;;;;9.90;8.90;;;;;;;1.12;61.04;100621.09;680109;28;1375;-85
2023/03/12 01:19:03;;;;;;;9.65;8.65;;;;;;;1.15;61.16;100625.53;685335;28;1106;-86
2023/03/12 01:19:24;;;;;;;9.65;8.65;;;;;;;1.20;60.83;100630.19;682793;28;1466;-86
2023/03/12 01:19:44;;;;;;;9.80;8.47;;;;;;;1.17;61.10;100623.97;682825;28;1312;-85
2023/03/12 01:20:07;;;;;;;9.17;8.27;;;;;;;1.14;60.99;100618.63;685409;28;1090;-85
2023/03/12 01:20:27;;;;;;;9.27;8.38;;;;;;;1.25;60.97;100640.75;688200;28;1235;-86
2023/03/12 01:20:48;;;;;;;9.50;8.60;;;;;;;1.26;61.34;100634.81;682753;28;1121;-86
2023/03/12 01:21:09;;;;;;;10.02;9.02;;;;;;;1.25;60.83;100625.34;685346;28;1174;-86
2023/03/12 01:21:30;;;;;;;9.80;8.80;;;;;;;1.19;61.39;100622.38;688218;28;1390;-85
2023/03/12 01:21:50;;;;;;;9.75;8.75;;;;;;;1.24;61.09;100618.41;687743;28;1181;-86
2023/03/12 01:22:11;;;;;;;9.87;8.93;;;;;;;1.28;61.34;100629.78;685386;28;1100;-86
2023/03/12 01:22:31;;;;;;;10.25;9.25;;;;;;;1.33;61.27;100621.56;682879;28;753;-85
2023/03/12 01:22:52;;;;;;;10.05;9.05;;;;;;;1.30;60.93;100616.25;688064;28;1027;-85
2023/03/12 01:23:13;;;;;;;9.60;8.63;;;;;;;1.39;61.23;100630.47;685362;28;1384;-86
2023/03/12 01:23:33;;;;;;;9.67;8.67;;;;;;;1.40;61.14;100625.41;685436;28;1286;-85
2023/03/12 01:23:55;;;;;;;9.73;8.73;;;;;;;1.35;61.08;100609.69;688057;28;1102;-85
2023/03/12 01:24:16;;;;;;;10.18;8.90;;;;;;;1.39;61.29;100620.19;687994;28;1239;-85
2023/03/12 01:24:38;;;;;;;9.80;8.80;;;;;;;1.40;60.91;100612.53;688291;28;792;-85
2023/03/12 01:24:58;;;;;;;9.63;8.63;;;;;;;1.48;60.94;100631.03;685188;28;1345;-86
2023/03/12 01:25:19;;;;;;;9.97;8.33;;;;;;;1.51;60.85;100625.22;688170;28;1263;-86
2023/03/12 01:25:40;;;;;;;10.75;8.50;;;;;;;1.44;60.75;100613.63;685418;28;1145;-86
2023/03/12 01:26:00;;;;;;;10.73;8.80;;;;;;;1.45;60.89;100608.59;685433;28;957;-86
2023/03/12 01:26:22;;;;;;;9.70;8.70;;;;;;;1.46;60.84;100606.91;690800;28;1057;-86
2023/03/12 01:26:42;;;;;;;9.50;8.60;;;;;;;1.49;60.76;100615.72;682618;28;1236;-85
2023/03/12 01:27:19;;;;;;;9.65;8.65;;;;;;;1.51;60.19;100614.91;688216;28;839;-85
2023/03/12 01:27:39;;;;;;;9.52;8.40;;;;;;;1.53;60.57;100614.22;685393;28;1282;-85
2023/03/12 01:28:00;;;;;;;8.90;8.00;;;;;;;1.56;60.11;100618.63;680116;29;1261;-85
2023/03/12 01:28:23;;;;;;;8.77;7.88;;;;;;;1.65;60.57;100626.97;685415;28;1132;-86
2023/03/12 01:28:44;;;;;;;9.38;8.13;;;;;;;1.60;60.37;100615.47;682720;28;1112;-85
2023/03/12 01:29:05;;;;;;;10.48;8.50;;;;;;;1.55;60.35;100611.72;687905;28;1226;-86
2023/03/12 01:29:26;;;;;;;10.88;8.75;;;;;;;1.53;60.20;100614.22;688110;28;1314;-86
2023/03/12 01:29:46;;;;;;;9.45;8.40;;;;;;;1.55;60.12;100606.59;685340;28;1214;-85
2023/03/12 01:30:08;;;;;;;9.30;8.40;;;;;;;1.59;60.36;100613.72;680001;29;1196;-85
2023/03/12 01:30:30;;;;;;;9.60;8.60;;;;;;;1.55;60.02;100612.63;685453;28;1129;-86
2023/03/12 01:30:51;;;;;;;10.10;9.10;;;;;;;1.69;60.27;100630.56;682892;29;1048;-86
2023/03/12 01:31:14;;;;;;;10.00;9.00;;;;;;;1.61;60.00;100615.59;690571;28;1195;-85
2023/03/12 01:31:35;;;;;;;10.05;9.05;;;;;;;1.59;60.24;100614.56;690834;28;1333;-86
2023/03/12 01:31:55;;;;;;;10.15;9.15;;;;;;;1.69;60.09;100631.47;690694;28;1059;-85
2023/03/12 01:32:17;;;;;;;10.30;9.20;;;;;;;1.65;60.29;100613.19;682843;29;984;-85
2023/03/12 01:32:37;;;;;;;10.57;8.90;;;;;;;1.68;59.91;100618.50;682880;29;844;-85
2023/03/12 01:32:58;;;;;;;12.10;8.80;;;;;;;1.60;60.25;100608.63;688007;28;1170;-86
2023/03/12 01:33:21;;;;;;;11.70;8.95;;;;;;;1.72;60.03;100621.38;688060;28;991;-85
2023/03/12 01:33:42;;;;;;;10.93;9.00;;;;;;;1.69;60.11;100610.00;690675;28;1305;-86
2023/03/12 01:34:02;;;;;;;10.20;9.10;;;;;;;1.70;60.16;100609.22;687811;28;1922;-86
2023/03/12 01:34:23;;;;;;;10.57;9.10;;;;;;;1.75;60.12;100610.38;685505;28;1099;-86
2023/03/12 01:34:52;;;;;;;10.87;9.13;;;;;;;1.78;60.30;100610.59;685292;28;870;-86
2023/03/12 01:35:29;;;;;;;10.63;8.73;;;;;;;1.67;59.75;100596.16;685596;28;1624;-86
2023/03/12 01:35:50;;;;;;;10.48;8.80;;;;;;;1.69;60.09;100592.88;680047;29;1399;-85
2023/03/12 01:36:19;;;;;;;10.07;9.07;;;;;;;1.72;60.06;100599.91;690687;28;1265;-86
2023/03/12 01:36:41;;;;;;;10.00;9.10;;;;;;;1.72;60.33;100597.34;690754;28;2052;-85
2023/03/12 01:37:01;;;;;;;9.90;8.93;;;;;;;1.69;59.76;100589.41;687953;28;1049;-85
2023/03/12 01:37:22;;;;;;;9.88;8.88;;;;;;;1.69;60.09;100594.56;688259;28;941;-86
2023/03/12 01:37:42;;;;;;;10.63;9.27;;;;;;;1.80;60.08;100608.09;688148;28;1052;-85
2023/03/12 01:38:04;;;;;;;10.63;9.40;;;;;;;1.78;60.33;100600.28;685314;28;1090;-85
2023/03/12 01:38:25;;;;;;;10.68;9.40;;;;;;;1.75;60.48;100602.66;682814;28;1341;-86
2023/03/12 01:38:46;;;;;;;10.38;9.30;;;;;;;1.72;60.47;100590.50;685417;28;1201;-85
2023/03/12 01:39:06;;;;;;;10.87;9.70;;;;;;;1.74;60.16;100599.22;682627;28;1056;-85
2023/03/12 01:39:27;;;;;;;10.83;9.50;;;;;;;1.81;59.97;100610.75;682942;29;780;-86
2023/03/12 01:39:48;;;;;;;12.38;9.38;;;;;;;1.77;59.72;100603.66;688067;28;1199;-85
2023/03/12 01:40:15;;;;;;;11.45;8.85;;;;;;;1.84;59.93;100616.06;687981;28;1112;-86
2023/03/12 01:40:36;;;;;;;10.43;8.70;;;;;;;1.74;60.16;100595.75;688187;28;1288;-86
2023/03/12 01:40:57;;;;;;;10.57;8.57;;;;;;;1.81;59.96;100605.63;685221;28;1227;-85
2023/03/12 01:41:19;;;;;;;10.13;8.53;;;;;;;1.81;60.22;100610.75;690869;28;1185;-86
2023/03/12 01:41:40;;;;;;;10.55;8.50;;;;;;;1.80;60.19;100598.69;690775;28;1058;-84
2023/03/12 01:42:01;;;;;;;9.38;8.38;;;;;;;1.77;59.85;100598.53;685258;28;1370;-86
2023/03/12 01:42:21;;;;;;;9.55;8.40;;;;;;;1.80;60.23;100611.56;688237;28;871;-86
2023/03/12 01:42:42;;;;;;;9.20;8.23;;;;;;;1.83;60.08;100614.31;685422;28;1183;-86
2023/03/12 01:43:23;;;;;;;9.60;8.33;;;;;;;1.86;60.16;100609.38;685342;28;1120;-85